PWSweather.com
Personal Weather Stations
Station Observations
MDHALE1
Southwest Baltimore Co., Halethorpe, MD 21227

Southwest Baltimore Co.Halethorpe, MD 21227

Lat: 39.23643, Lon: -76.696959

Elevation: 86

Station Type: Davis Vantage Pro2+

http://www.halethorpeweather.com

Latest ConditionsUpdated 12:45:01 PM EST Tuesday, Jan 22, 2019
Currently Today's Max Today's Min Today's Average
Temperature 30.1°F-1.1°C 30.1°F-1.1°C 11.6°F-11.3°C 16.9°F-8.4°C
Dew Point 8.1°F-13.3°C 8.6°F-13.0°C 1.5°F-16.9°C 4.0°F-15.6°C
Winds 1.2 mph SSW1.9 kmh SSW 4.6 mph -7.4 kmh - - 2.6 mph 4.2 kmh
Wind Gusts 1.2 mph1.9 kmh 10.4 mph16.7 kmh - -
Humidity 39% 70% 39% 57%
Pressure 30.68 in1038.9 mb 30.73 in1040.6 mb 30.57 in1035.2 mb -
Hour Temp Dew Point Humidity Winds Wind Gusts Pressure Precip Precip Rate Daily Precip Total
12:45 PM 30.1°F-1.1°C 8.1°F-13.3°C 39% 1.2 mph SSW1.9 kmh SSW 1.2 mph1.9 kmh 30.68 in1038.9 mb - 0.00 in0.0 mm 0.00 in0.0 mm
12:30 PM 29.4°F-1.4°C 8.6°F-13.0°C 41% 3.5 mph N5.6 kmh N 4.6 mph7.4 kmh 30.68 in1038.9 mb - 0.00 in0.0 mm 0.00 in0.0 mm
12:15 PM 29.3°F-1.5°C 8.5°F-13.1°C 41% 1.2 mph S1.9 kmh S 4.6 mph7.4 kmh 30.69 in1039.3 mb - 0.00 in0.0 mm 0.00 in0.0 mm
12:00 PM 27.7°F-2.4°C 7.0°F-13.9°C 41% 2.3 mph SSW3.7 kmh SSW 3.5 mph5.6 kmh 30.69 in1039.3 mb - 0.00 in0.0 mm 0.00 in0.0 mm
11:45 AM 28.3°F-2.1°C 7.6°F-13.6°C 41% 3.5 mph ESE5.6 kmh ESE 3.5 mph5.6 kmh 30.70 in1039.6 mb - 0.00 in0.0 mm 0.00 in0.0 mm
11:30 AM 26.7°F-2.9°C 6.6°F-14.1°C 42% 2.3 mph ENE3.7 kmh ENE 3.5 mph5.6 kmh 30.71 in1040.0 mb - 0.00 in0.0 mm 0.00 in0.0 mm
11:15 AM 25.4°F-3.7°C 6.5°F-14.2°C 44% 1.2 mph E1.9 kmh E 1.2 mph1.9 kmh 30.72 in1040.3 mb - 0.00 in0.0 mm 0.00 in0.0 mm
11:00 AM 25.2°F-3.8°C 7.3°F-13.7°C 46% 2.3 mph NNE3.7 kmh NNE 4.6 mph7.4 kmh 30.73 in1040.6 mb - 0.00 in0.0 mm 0.00 in0.0 mm
10:45 AM 24.4°F-4.2°C 7.0°F-13.9°C 47% 3.5 mph NE5.6 kmh NE 4.6 mph7.4 kmh 30.73 in1040.6 mb - 0.00 in0.0 mm 0.00 in0.0 mm
10:30 AM 23.6°F-4.7°C 6.7°F-14.1°C 48% 3.5 mph NE5.6 kmh NE 3.5 mph5.6 kmh 30.72 in1040.3 mb - 0.00 in0.0 mm 0.00 in0.0 mm
10:15 AM 22.1°F-5.5°C 5.8°F-14.6°C 49% 3.5 mph N5.6 kmh N 3.5 mph5.6 kmh 30.72 in1040.3 mb - 0.00 in0.0 mm 0.00 in0.0 mm
10:00 AM 22.0°F-5.6°C 6.2°F-14.3°C 50% 3.5 mph NNE5.6 kmh NNE 8.1 mph13.0 kmh 30.72 in1040.3 mb - 0.00 in0.0 mm 0.00 in0.0 mm
09:45 AM 19.8°F-6.8°C 5.8°F-14.6°C 54% 1.2 mph W1.9 kmh W 4.6 mph7.4 kmh 30.72 in1040.3 mb - 0.00 in0.0 mm 0.00 in0.0 mm
09:30 AM 19.2°F-7.1°C 5.7°F-14.6°C 55% 4.6 mph WNW7.4 kmh WNW 6.9 mph11.1 kmh 30.73 in1040.6 mb - 0.00 in0.0 mm 0.00 in0.0 mm
09:15 AM 18.4°F-7.6°C 5.7°F-14.6°C 57% 4.6 mph NW7.4 kmh NW 4.6 mph7.4 kmh 30.73 in1040.6 mb - 0.00 in0.0 mm 0.00 in0.0 mm
09:00 AM 17.3°F-8.2°C 5.4°F-14.8°C 59% 1.2 mph WNW1.9 kmh WNW 6.9 mph11.1 kmh 30.72 in1040.3 mb - 0.00 in0.0 mm 0.00 in0.0 mm
08:45 AM 16.2°F-8.8°C 5.1°F-14.9°C 61% 4.6 mph W7.4 kmh W 6.9 mph11.1 kmh 30.71 in1040.0 mb - 0.00 in0.0 mm 0.00 in0.0 mm
08:30 AM 15.4°F-9.2°C 5.0°F-15.0°C 63% Calm Calm 1.2 mph1.9 kmh 30.71 in1040.0 mb - 0.00 in0.0 mm 0.00 in0.0 mm
08:15 AM 14.3°F-9.8°C 4.7°F-15.2°C 65% 1.2 mph WSW1.9 kmh WSW 2.3 mph3.7 kmh 30.71 in1040.0 mb - 0.00 in0.0 mm 0.00 in0.0 mm
08:04 AM 13.4°F-10.3°C 4.8°F-15.1°C 68% 1.2 mph N1.9 kmh N 1.2 mph1.9 kmh 30.70 in1039.6 mb - 0.00 in0.0 mm 0.00 in0.0 mm
08:00 AM 13.1°F-10.5°C 4.8°F-15.1°C 69% Calm Calm -- 30.70 in1039.6 mb - 0.00 in0.0 mm 0.00 in0.0 mm
07:45 AM 12.5°F-10.8°C 4.0°F-15.6°C 68% 1.2 mph W1.9 kmh W 1.2 mph1.9 kmh 30.69 in1039.3 mb - 0.00 in0.0 mm 0.00 in0.0 mm
07:30 AM 11.7°F-11.3°C 3.8°F-15.7°C 70% Calm Calm 1.2 mph1.9 kmh 30.69 in1039.3 mb - 0.00 in0.0 mm 0.00 in0.0 mm
07:15 AM 11.6°F-11.3°C 3.7°F-15.7°C 70% 1.2 mph W1.9 kmh W 1.2 mph1.9 kmh 30.69 in1039.3 mb - 0.00 in0.0 mm 0.00 in0.0 mm
07:00 AM 12.1°F-11.1°C 3.2°F-16.0°C 67% Calm Calm -- 30.69 in1039.3 mb - 0.00 in0.0 mm 0.00 in0.0 mm
06:45 AM 12.3°F-10.9°C 3.4°F-15.9°C 67% 1.2 mph W1.9 kmh W 1.2 mph1.9 kmh 30.68 in1038.9 mb - 0.00 in0.0 mm 0.00 in0.0 mm
06:30 AM 12.4°F-10.9°C 3.2°F-16.0°C 66% 2.3 mph W3.7 kmh W 2.3 mph3.7 kmh 30.68 in1038.9 mb - 0.00 in0.0 mm 0.00 in0.0 mm
06:15 AM 12.7°F-10.7°C 3.2°F-16.0°C 65% 2.3 mph NW3.7 kmh NW 2.3 mph3.7 kmh 30.67 in1038.6 mb - 0.00 in0.0 mm 0.00 in0.0 mm
06:00 AM 13.0°F-10.6°C 3.1°F-16.1°C 64% 3.5 mph S5.6 kmh S 4.6 mph7.4 kmh 30.67 in1038.6 mb - 0.00 in0.0 mm 0.00 in0.0 mm
05:45 AM 13.0°F-10.6°C 3.1°F-16.1°C 64% 1.2 mph SW1.9 kmh SW 3.5 mph5.6 kmh 30.66 in1038.3 mb - 0.00 in0.0 mm 0.00 in0.0 mm
05:30 AM 13.4°F-10.3°C 3.5°F-15.8°C 64% 2.3 mph WSW3.7 kmh WSW 6.9 mph11.1 kmh 30.66 in1038.3 mb - 0.00 in0.0 mm 0.00 in0.0 mm
05:15 AM 14.0°F-10.0°C 3.4°F-15.9°C 62% 3.5 mph WSW5.6 kmh WSW 4.6 mph7.4 kmh 30.66 in1038.3 mb - 0.00 in0.0 mm 0.00 in0.0 mm
05:00 AM 14.0°F-10.0°C 3.4°F-15.9°C 62% 2.3 mph WNW3.7 kmh WNW 3.5 mph5.6 kmh 30.65 in1037.9 mb - 0.00 in0.0 mm 0.00 in0.0 mm
04:45 AM 13.8°F-10.1°C 3.2°F-16.0°C 62% 2.3 mph WNW3.7 kmh WNW 3.5 mph5.6 kmh 30.64 in1037.6 mb - 0.00 in0.0 mm 0.00 in0.0 mm
04:30 AM 13.4°F-10.3°C 3.1°F-16.1°C 63% 2.3 mph NW3.7 kmh NW 3.5 mph5.6 kmh 30.64 in1037.6 mb - 0.00 in0.0 mm 0.00 in0.0 mm
04:15 AM 13.6°F-10.2°C 2.6°F-16.3°C 61% 1.2 mph NW1.9 kmh NW 1.2 mph1.9 kmh 30.64 in1037.6 mb - 0.00 in0.0 mm 0.00 in0.0 mm
04:00 AM 13.4°F-10.3°C 2.8°F-16.2°C 62% 3.5 mph WNW5.6 kmh WNW 3.5 mph5.6 kmh 30.64 in1037.6 mb - 0.00 in0.0 mm 0.00 in0.0 mm
03:45 AM 13.7°F-10.2°C 2.4°F-16.4°C 60% 2.3 mph NW3.7 kmh NW 1.2 mph1.9 kmh 30.64 in1037.6 mb - 0.00 in0.0 mm 0.00 in0.0 mm
03:30 AM 13.8°F-10.1°C 2.1°F-16.6°C 59% 3.5 mph W5.6 kmh W 5.8 mph9.3 kmh 30.64 in1037.6 mb - 0.00 in0.0 mm 0.00 in0.0 mm
03:15 AM 13.9°F-10.1°C 1.8°F-16.8°C 58% 4.6 mph WNW7.4 kmh WNW 4.6 mph7.4 kmh 30.64 in1037.6 mb - 0.00 in0.0 mm 0.00 in0.0 mm
03:00 AM 13.8°F-10.1°C 2.1°F-16.6°C 59% 4.6 mph NW7.4 kmh NW 10.4 mph16.7 kmh 30.64 in1037.6 mb - 0.00 in0.0 mm 0.00 in0.0 mm
02:45 AM 13.7°F-10.2°C 2.0°F-16.7°C 59% 3.5 mph WNW5.6 kmh WNW 9.2 mph14.8 kmh 30.63 in1037.3 mb - 0.00 in0.0 mm 0.00 in0.0 mm
02:30 AM 13.7°F-10.2°C 2.0°F-16.7°C 59% 4.6 mph W7.4 kmh W 8.1 mph13.0 kmh 30.63 in1037.3 mb - 0.00 in0.0 mm 0.00 in0.0 mm
02:15 AM 13.9°F-10.1°C 1.8°F-16.8°C 58% 3.5 mph WNW5.6 kmh WNW 4.6 mph7.4 kmh 30.62 in1036.9 mb - 0.00 in0.0 mm 0.00 in0.0 mm
02:00 AM 14.0°F-10.0°C 1.5°F-16.9°C 57% 3.5 mph WNW5.6 kmh WNW 5.8 mph9.3 kmh 30.61 in1036.6 mb - 0.00 in0.0 mm 0.00 in0.0 mm
01:45 AM 14.1°F-9.9°C 1.6°F-16.9°C 57% 2.3 mph WNW3.7 kmh WNW 8.1 mph13.0 kmh 30.60 in1036.2 mb - 0.00 in0.0 mm 0.00 in0.0 mm
01:30 AM 14.3°F-9.8°C 1.8°F-16.8°C 57% 2.3 mph W3.7 kmh W 4.6 mph7.4 kmh 30.59 in1035.9 mb - 0.00 in0.0 mm 0.00 in0.0 mm
01:15 AM 14.3°F-9.8°C 1.8°F-16.8°C 57% 4.6 mph W7.4 kmh W 9.2 mph14.8 kmh 30.58 in1035.6 mb - 0.00 in0.0 mm 0.00 in0.0 mm
01:00 AM 14.4°F-9.8°C 1.6°F-16.9°C 56% 2.3 mph NW3.7 kmh NW 4.6 mph7.4 kmh 30.58 in1035.6 mb - 0.00 in0.0 mm 0.00 in0.0 mm
12:45 AM 14.7°F-9.6°C 1.5°F-16.9°C 55% 3.5 mph W5.6 kmh W 4.6 mph7.4 kmh 30.57 in1035.2 mb - 0.00 in0.0 mm 0.00 in0.0 mm
12:30 AM 14.8°F-9.6°C 1.9°F-16.7°C 56% 4.6 mph NW7.4 kmh NW 5.8 mph9.3 kmh 30.58 in1035.6 mb - 0.00 in0.0 mm 0.00 in0.0 mm
12:15 AM 14.9°F-9.5°C 1.6°F-16.9°C 55% 3.5 mph W5.6 kmh W 2.3 mph3.7 kmh 30.58 in1035.6 mb - 0.00 in0.0 mm 0.00 in0.0 mm
12:01 AM 15.2°F-9.3°C 1.5°F-16.9°C 54% 4.6 mph W7.4 kmh W 4.6 mph7.4 kmh 30.57 in1035.2 mb - 0.00 in0.0 mm 0.00 in0.0 mm